createdAt,value
2017-05-13T00:07:27.000Z,14.2
2017-05-13T00:24:10.000Z,14.2
2017-05-13T00:40:52.000Z,14.6
2017-05-13T00:57:34.000Z,14.2
2017-05-13T01:14:16.000Z,13.9
2017-05-13T01:30:58.000Z,13.9
2017-05-13T01:47:40.000Z,13.6
2017-05-13T02:04:22.000Z,13.6
2017-05-13T02:21:04.000Z,13.3
2017-05-13T02:37:45.000Z,13.3
2017-05-13T02:54:27.000Z,13
2017-05-13T03:11:07.000Z,13
2017-05-13T03:27:48.000Z,13.3
2017-05-13T03:44:29.000Z,13
2017-05-13T04:01:09.000Z,13
2017-05-13T04:17:50.000Z,13
2017-05-13T04:34:32.000Z,13.3
2017-05-13T04:51:13.000Z,13.6
2017-05-13T05:07:55.000Z,13.9
2017-05-13T05:24:37.000Z,14.2
2017-05-13T05:41:21.000Z,14.6
2017-05-13T05:58:03.000Z,14.9
2017-05-13T06:14:46.000Z,15.2
2017-05-13T06:31:29.000Z,15.5
2017-05-13T06:48:13.000Z,15.8
2017-05-13T07:04:57.000Z,16.5
2017-05-13T07:21:41.000Z,16.8
2017-05-13T07:38:25.000Z,17.1
2017-05-13T07:55:10.000Z,17.1
2017-05-13T08:11:54.000Z,17.4
2017-05-13T08:28:40.000Z,17.8
2017-05-13T08:45:25.000Z,18.4
2017-05-13T08:58:50.000Z,19
2017-05-13T09:15:36.000Z,19.7
2017-05-13T09:25:41.000Z,20.3
2017-05-13T09:42:29.000Z,20.3
2017-05-13T09:59:17.000Z,21
2017-05-13T10:16:05.000Z,20.6
2017-05-13T10:26:10.000Z,20.6
2017-05-13T10:36:14.000Z,21.3
2017-05-13T10:46:19.000Z,21.9
2017-05-13T11:03:08.000Z,21.3
2017-05-13T11:16:35.000Z,21.6
2017-05-13T11:26:41.000Z,22.2
2017-05-13T11:33:24.000Z,22.9
2017-05-13T11:43:30.000Z,23.2
2017-05-13T12:00:21.000Z,23.2
2017-05-13T12:17:11.000Z,23.2
2017-05-13T12:34:01.000Z,22.9
2017-05-13T12:50:51.000Z,22.9
2017-05-13T13:07:40.000Z,22.9
2017-05-13T13:24:31.000Z,22.6
2017-05-13T13:41:20.000Z,22.9
2017-05-13T13:58:10.000Z,23.2
2017-05-13T14:15:00.000Z,23.5
2017-05-13T14:31:50.000Z,23.8
2017-05-13T14:48:42.000Z,23.5
2017-05-13T14:58:48.000Z,22.9
2017-05-13T15:08:53.000Z,23.5
2017-05-13T15:25:44.000Z,23.2
2017-05-13T15:42:34.000Z,23.2
2017-05-13T15:59:24.000Z,23.5
2017-05-13T16:16:14.000Z,23.8
2017-05-13T16:33:06.000Z,23.5
2017-05-13T16:39:50.000Z,24.2
2017-05-13T16:43:12.000Z,25.1
2017-05-13T16:49:57.000Z,25.1
2017-05-13T16:53:19.000Z,24.5
2017-05-13T17:00:03.000Z,25.4
2017-05-13T17:03:26.000Z,26.1
2017-05-13T17:20:19.000Z,25.1
2017-05-13T17:23:42.000Z,24.5
2017-05-13T17:27:04.000Z,23.8
2017-05-13T17:33:48.000Z,23.2
2017-05-13T17:43:54.000Z,22.6
2017-05-13T18:00:43.000Z,21.9
2017-05-13T18:14:10.000Z,21.3
2017-05-13T18:30:59.000Z,21
2017-05-13T18:47:46.000Z,20.6
2017-05-13T19:04:33.000Z,20.3
2017-05-13T19:31:24.000Z,19
2017-05-13T19:44:49.000Z,18.7
2017-05-13T19:54:52.000Z,18.1
2017-05-13T20:11:38.000Z,17.8
2017-05-13T20:28:23.000Z,17.4
2017-05-13T20:45:07.000Z,17.1
2017-05-13T21:01:51.000Z,17.1
2017-05-13T21:18:37.000Z,17.1
2017-05-13T21:32:00.000Z,16.8
2017-05-13T21:48:44.000Z,16.5
2017-05-13T22:05:28.000Z,16.5
2017-05-13T22:22:11.000Z,16.5
2017-05-13T22:38:56.000Z,16.2
2017-05-13T22:55:40.000Z,16.2
2017-05-13T23:12:23.000Z,15.8
2017-05-13T23:29:07.000Z,15.8
2017-05-13T23:45:50.000Z,15.8
